createdAt,value
2018-09-08T00:01:35.034Z,4.07
2018-09-08T00:04:03.457Z,2.93
2018-09-08T00:06:36.614Z,3.20
2018-09-08T00:09:07.875Z,2.93
2018-09-08T00:11:36.297Z,3.10
2018-09-08T00:14:04.820Z,3.27
2018-09-08T00:16:38.639Z,4.07
2018-09-08T00:19:12.349Z,7.47
2018-09-08T00:21:46.024Z,2.60
2018-09-08T00:24:19.772Z,2.80
2018-09-08T00:26:47.330Z,4.30
2018-09-08T00:29:24.872Z,3.50
2018-09-08T00:31:53.355Z,4.87
2018-09-08T00:34:21.980Z,3.07
2018-09-08T00:36:50.429Z,2.93
2018-09-08T00:39:18.856Z,5.40
2018-09-08T00:41:47.313Z,3.37
2018-09-08T00:44:15.752Z,2.83
2018-09-08T00:46:44.210Z,2.90
2018-09-08T00:49:12.653Z,2.53
2018-09-08T00:51:41.116Z,2.47
2018-09-08T00:54:09.549Z,4.63
2018-09-08T00:56:38.026Z,2.40
2018-09-08T00:59:06.531Z,1.90
2018-09-08T01:01:36.216Z,3.73
2018-09-08T01:04:04.729Z,2.63
2018-09-08T01:06:33.149Z,3.43
2018-09-08T01:09:01.604Z,2.30
2018-09-08T01:11:30.085Z,3.73
2018-09-08T01:13:58.505Z,2.17
2018-09-08T01:16:26.921Z,2.67
2018-09-08T01:18:55.346Z,4.17
2018-09-08T01:21:23.804Z,3.07
2018-09-08T01:23:53.493Z,2.73
2018-09-08T01:26:22.610Z,3.07
2018-09-08T01:28:51.929Z,3.20
2018-09-08T01:31:20.792Z,2.90
2018-09-08T01:33:49.196Z,2.60
2018-09-08T01:36:17.657Z,3.57
2018-09-08T01:38:46.093Z,2.57
2018-09-08T01:41:14.506Z,2.77
2018-09-08T01:43:42.929Z,4.20
2018-09-08T01:46:11.343Z,3.63
2018-09-08T01:48:39.777Z,2.23
2018-09-08T01:51:08.256Z,2.60
2018-09-08T01:53:36.687Z,2.93
2018-09-08T01:56:05.133Z,3.33
2018-09-08T01:58:33.644Z,3.10
2018-09-08T02:01:02.082Z,2.63
2018-09-08T02:03:30.500Z,5.07
2018-09-08T02:05:58.905Z,2.57
2018-09-08T02:08:27.333Z,3.43
2018-09-08T02:10:55.736Z,2.63
2018-09-08T02:13:24.149Z,4.60
2018-09-08T02:15:52.557Z,4.23
2018-09-08T02:18:21.053Z,2.47
2018-09-08T02:20:49.457Z,2.97
2018-09-08T02:23:17.937Z,2.57
2018-09-08T02:25:46.328Z,4.93
2018-09-08T02:28:14.761Z,4.90
2018-09-08T02:30:43.165Z,2.97
2018-09-08T02:33:11.629Z,4.17
2018-09-08T02:35:40.025Z,3.50
2018-09-08T02:38:08.469Z,2.57
2018-09-08T02:40:36.902Z,3.13
2018-09-08T02:43:05.413Z,3.27
2018-09-08T02:45:33.872Z,3.90
2018-09-08T02:48:02.317Z,4.63
2018-09-08T02:50:32.627Z,7.30
2018-09-08T02:53:00.504Z,3.23
2018-09-08T02:55:27.892Z,2.50
2018-09-08T02:57:55.321Z,2.60
2018-09-08T03:00:22.545Z,2.47
2018-09-08T03:02:49.929Z,3.17
2018-09-08T03:05:17.216Z,2.43
2018-09-08T03:07:44.457Z,5.17
2018-09-08T03:10:11.834Z,4.03
2018-09-08T03:12:39.078Z,3.93
2018-09-08T03:15:06.327Z,2.97
2018-09-08T03:17:33.575Z,3.27
2018-09-08T03:20:00.893Z,3.67
2018-09-08T03:22:28.120Z,5.63
2018-09-08T03:24:55.375Z,3.00
2018-09-08T03:27:22.614Z,3.47
2018-09-08T03:29:49.868Z,2.97
2018-09-08T03:32:17.106Z,4.60
2018-09-08T03:34:44.369Z,3.17
2018-09-08T03:37:11.591Z,3.33
2018-09-08T03:39:38.823Z,2.83
2018-09-08T03:42:06.046Z,3.17
2018-09-08T03:44:33.329Z,4.33
2018-09-08T03:47:00.661Z,10.23
2018-09-08T03:49:27.913Z,6.70
2018-09-08T03:51:55.154Z,6.27
2018-09-08T03:54:22.406Z,4.43
2018-09-08T03:56:49.629Z,3.47
2018-09-08T03:59:16.873Z,3.50
2018-09-08T04:01:44.099Z,3.93
2018-09-08T04:04:12.489Z,6.87
2018-09-08T04:06:40.877Z,2.90
2018-09-08T04:09:10.393Z,3.00
2018-09-08T04:11:39.005Z,5.20
2018-09-08T04:14:07.978Z,4.17
2018-09-08T04:16:36.375Z,5.53
2018-09-08T04:19:04.858Z,3.83
2018-09-08T04:21:33.246Z,2.87
2018-09-08T04:24:01.717Z,3.47
2018-09-08T04:26:30.196Z,7.40
2018-09-08T04:28:58.597Z,4.63
2018-09-08T04:31:27.058Z,3.97
2018-09-08T04:33:55.485Z,3.30
2018-09-08T04:36:23.883Z,8.80
2018-09-08T04:38:52.289Z,7.57
2018-09-08T04:41:20.693Z,6.23
2018-09-08T04:43:49.514Z,5.27
2018-09-08T04:46:17.966Z,7.23
2018-09-08T04:48:46.367Z,6.97
2018-09-08T04:51:14.757Z,4.40
2018-09-08T04:53:43.211Z,7.83
2018-09-08T04:56:11.616Z,5.47
2018-09-08T04:58:40.030Z,7.83
2018-09-08T05:01:08.476Z,5.67
2018-09-08T05:03:36.945Z,6.30
2018-09-08T05:06:05.365Z,4.33
2018-09-08T05:08:33.819Z,4.67
2018-09-08T05:11:02.261Z,4.43
2018-09-08T05:13:30.665Z,6.30
2018-09-08T05:15:59.085Z,4.03
2018-09-08T05:18:27.502Z,7.40
2018-09-08T05:20:55.979Z,5.57
2018-09-08T05:23:24.431Z,4.27
2018-09-08T05:25:52.970Z,4.77
2018-09-08T05:28:21.382Z,4.60
2018-09-08T05:30:49.818Z,7.77
2018-09-08T05:33:18.330Z,5.20
2018-09-08T05:35:46.792Z,5.50
2018-09-08T05:38:15.325Z,5.60
2018-09-08T05:40:43.784Z,7.33
2018-09-08T05:43:12.205Z,6.10
2018-09-08T05:45:40.680Z,8.70
2018-09-08T05:48:09.130Z,4.77
2018-09-08T05:50:37.552Z,3.90
2018-09-08T05:53:06.079Z,5.27
2018-09-08T05:55:34.585Z,4.27
2018-09-08T05:58:03.006Z,6.37
2018-09-08T06:00:31.477Z,6.40
2018-09-08T06:02:59.996Z,4.93
2018-09-08T06:05:29.614Z,4.60
2018-09-08T06:07:58.191Z,4.73
2018-09-08T06:10:26.838Z,7.57
2018-09-08T06:12:55.401Z,4.60
2018-09-08T06:15:23.950Z,6.83
2018-09-08T06:17:52.353Z,6.97
2018-09-08T06:20:20.810Z,4.53
2018-09-08T06:22:49.239Z,5.50
2018-09-08T06:25:17.691Z,5.97
2018-09-08T06:27:46.135Z,3.60
2018-09-08T06:30:14.578Z,6.40
2018-09-08T06:32:42.993Z,4.00
2018-09-08T06:35:11.558Z,3.70
2018-09-08T06:37:39.886Z,4.23
2018-09-08T06:40:08.398Z,5.03
2018-09-08T06:42:36.852Z,6.17
2018-09-08T06:45:05.432Z,5.90
2018-09-08T06:47:33.806Z,6.80
2018-09-08T06:50:02.298Z,4.47
2018-09-08T06:52:30.746Z,3.77
2018-09-08T06:54:59.208Z,3.83
2018-09-08T06:57:27.620Z,3.97
2018-09-08T06:59:56.061Z,3.57
2018-09-08T07:02:24.561Z,3.20
2018-09-08T07:04:53.013Z,4.67
2018-09-08T07:07:21.451Z,10.67
2018-09-08T07:09:49.909Z,5.93
2018-09-08T07:12:18.365Z,5.93
2018-09-08T07:14:46.817Z,5.87
2018-09-08T07:17:15.304Z,2.90
2018-09-08T07:19:43.736Z,4.50
2018-09-08T07:22:12.197Z,4.60
2018-09-08T07:24:40.689Z,5.50
2018-09-08T07:27:09.175Z,5.03
2018-09-08T07:29:37.606Z,3.20
2018-09-08T07:32:06.066Z,3.23
2018-09-08T07:34:34.467Z,4.77
2018-09-08T07:37:02.933Z,5.63
2018-09-08T07:39:31.413Z,3.43
2018-09-08T07:41:59.895Z,4.13
2018-09-08T07:44:28.338Z,3.57
2018-09-08T07:46:56.858Z,2.27
2018-09-08T07:49:25.350Z,4.03
2018-09-08T07:51:53.801Z,3.53
2018-09-08T07:54:22.238Z,4.10
2018-09-08T07:56:50.693Z,2.00
2018-09-08T07:59:19.283Z,2.60
2018-09-08T08:01:47.715Z,1.93
2018-09-08T08:04:16.142Z,3.37
2018-09-08T08:06:44.593Z,3.43
2018-09-08T08:09:13.057Z,3.00
2018-09-08T08:11:41.500Z,4.33
2018-09-08T08:14:10.033Z,9.40
2018-09-08T08:16:38.604Z,2.53
2018-09-08T08:19:07.104Z,2.23
2018-09-08T08:21:35.619Z,3.20
2018-09-08T08:24:04.106Z,3.20
2018-09-08T08:26:32.537Z,2.90
2018-09-08T08:29:01.413Z,6.63
2018-09-08T08:31:29.902Z,5.27
2018-09-08T08:33:58.352Z,2.63
2018-09-08T08:36:26.870Z,3.37
2018-09-08T08:38:55.849Z,4.17
2018-09-08T08:41:24.356Z,4.53
2018-09-08T08:43:52.799Z,3.63
2018-09-08T08:46:21.234Z,1.97
2018-09-08T08:48:49.664Z,2.70
2018-09-08T08:51:29.425Z,1.23
2018-09-08T08:54:09.152Z,2.13
2018-09-08T08:56:37.609Z,4.37
2018-09-08T08:59:06.038Z,3.80
2018-09-08T09:01:34.511Z,3.50
2018-09-08T09:04:02.986Z,3.80
2018-09-08T09:06:31.426Z,2.07
2018-09-08T09:08:59.945Z,3.40
2018-09-08T09:11:28.805Z,2.50
2018-09-08T09:13:57.242Z,3.40
2018-09-08T09:16:25.712Z,2.00
2018-09-08T09:19:05.241Z,3.47
2018-09-08T09:21:44.955Z,1.47
2018-09-08T09:24:25.329Z,1.93
2018-09-08T09:26:53.481Z,2.13
2018-09-08T09:29:21.923Z,2.30
2018-09-08T09:31:50.406Z,4.10
2018-09-08T09:34:18.877Z,4.37
2018-09-08T09:36:47.407Z,6.17
2018-09-08T09:39:15.834Z,3.00
2018-09-08T09:41:44.385Z,1.90
2018-09-08T09:44:12.934Z,2.43
2018-09-08T09:46:41.854Z,4.20
2018-09-08T09:49:10.245Z,1.77
2018-09-08T09:51:38.687Z,1.90
2018-09-08T09:54:07.125Z,3.80
2018-09-08T09:56:35.613Z,3.13
2018-09-08T09:59:04.078Z,2.30
2018-09-08T10:01:37.943Z,5.57
2018-09-08T10:04:06.395Z,3.90
2018-09-08T10:06:34.896Z,1.83
2018-09-08T10:09:03.540Z,4.03
2018-09-08T10:11:32.075Z,2.70
2018-09-08T10:14:00.501Z,2.73
2018-09-08T10:16:28.958Z,2.70
2018-09-08T10:18:57.548Z,3.83
2018-09-08T10:21:26.000Z,2.57
2018-09-08T10:24:05.153Z,4.87
2018-09-08T10:26:22.928Z,2.13
2018-09-08T10:28:51.345Z,3.93
2018-09-08T10:31:19.797Z,2.70
2018-09-08T10:33:48.261Z,2.10
2018-09-08T10:36:16.724Z,1.90
2018-09-08T10:38:45.282Z,2.13
2018-09-08T10:41:13.720Z,1.80
2018-09-08T10:43:42.198Z,1.70
2018-09-08T10:46:10.744Z,2.90
2018-09-08T10:48:39.196Z,2.80
2018-09-08T10:51:17.670Z,1.97
2018-09-08T10:53:46.141Z,2.77
2018-09-08T10:56:14.532Z,7.03
2018-09-08T10:58:42.995Z,2.80
2018-09-08T11:01:11.436Z,1.50
2018-09-08T11:03:39.898Z,2.13
2018-09-08T11:06:08.334Z,4.30
2018-09-08T11:08:36.757Z,3.87
2018-09-08T11:11:05.186Z,2.00
2018-09-08T11:13:33.616Z,4.20
2018-09-08T11:16:02.043Z,2.70
2018-09-08T11:18:31.153Z,1.40
2018-09-08T11:20:59.599Z,3.30
2018-09-08T11:23:28.033Z,2.67
2018-09-08T11:25:56.457Z,2.00
2018-09-08T11:28:24.915Z,3.27
2018-09-08T11:30:53.355Z,2.97
2018-09-08T11:33:21.838Z,2.40
2018-09-08T11:35:50.282Z,1.90
2018-09-08T11:38:18.863Z,2.87
2018-09-08T11:40:47.279Z,2.33
2018-09-08T11:43:15.726Z,2.03
2018-09-08T11:45:44.130Z,2.73
2018-09-08T11:48:12.566Z,3.30
2018-09-08T11:50:41.017Z,1.67
2018-09-08T11:53:09.437Z,2.40
2018-09-08T11:55:37.936Z,1.70
2018-09-08T11:58:06.362Z,1.93
2018-09-08T12:00:34.781Z,2.97
2018-09-08T12:03:03.272Z,1.77
2018-09-08T12:05:31.646Z,2.03
2018-09-08T12:08:00.086Z,2.43
2018-09-08T12:10:28.561Z,2.10
2018-09-08T12:12:56.965Z,2.23
2018-09-08T12:15:25.422Z,2.20
2018-09-08T12:17:53.874Z,1.80
2018-09-08T12:20:22.317Z,2.53
2018-09-08T12:22:50.790Z,1.90
2018-09-08T12:25:19.182Z,4.63
2018-09-08T12:27:47.589Z,1.77
2018-09-08T12:30:15.977Z,2.83
2018-09-08T12:32:44.358Z,3.60
2018-09-08T12:35:12.773Z,1.67
2018-09-08T12:37:41.182Z,3.50
2018-09-08T12:40:09.610Z,2.13
2018-09-08T12:42:38.029Z,1.97
2018-09-08T12:45:06.871Z,1.93
2018-09-08T12:47:35.296Z,3.40
2018-09-08T12:50:03.713Z,2.23
2018-09-08T12:52:32.153Z,2.43
2018-09-08T12:55:00.613Z,1.73
2018-09-08T12:57:29.051Z,1.93
2018-09-08T12:59:57.537Z,2.90
2018-09-08T13:02:26.805Z,1.60
2018-09-08T13:04:55.249Z,1.57
2018-09-08T13:07:23.702Z,1.60
2018-09-08T13:09:52.169Z,1.50
2018-09-08T13:12:20.585Z,1.87
2018-09-08T13:14:49.057Z,2.23
2018-09-08T13:17:17.527Z,2.03
2018-09-08T13:19:45.961Z,1.70
2018-09-08T13:22:14.404Z,2.37
2018-09-08T13:24:42.913Z,2.50
2018-09-08T13:27:11.363Z,1.57
2018-09-08T13:29:39.781Z,2.10
2018-09-08T13:32:08.228Z,3.87
2018-09-08T13:34:36.682Z,2.03
2018-09-08T13:37:05.163Z,2.22
2018-09-08T13:39:33.639Z,1.90
2018-09-08T13:42:02.045Z,2.37
2018-09-08T13:44:30.549Z,2.90
2018-09-08T13:46:59.059Z,2.47
2018-09-08T13:49:27.430Z,2.17
2018-09-08T13:51:55.820Z,3.03
2018-09-08T13:54:24.247Z,4.22
2018-09-08T13:56:53.877Z,2.20
2018-09-08T13:59:22.303Z,2.75
2018-09-08T14:01:50.726Z,1.82
2018-09-08T14:04:19.264Z,1.70
2018-09-08T14:06:47.636Z,2.02
2018-09-08T14:09:16.182Z,2.50
2018-09-08T14:11:44.621Z,2.67
2018-09-08T14:14:13.192Z,2.20
2018-09-08T14:16:41.635Z,2.80
2018-09-08T14:19:10.086Z,3.43
2018-09-08T14:21:38.605Z,1.80
2018-09-08T14:24:07.073Z,1.53
2018-09-08T14:26:35.517Z,2.33
2018-09-08T14:29:03.987Z,2.53
2018-09-08T14:31:32.438Z,1.97
2018-09-08T14:34:00.900Z,1.30
2018-09-08T14:36:29.533Z,1.53
2018-09-08T14:38:57.981Z,2.30
2018-09-08T14:41:26.473Z,2.00
2018-09-08T14:43:55.279Z,2.53
2018-09-08T14:47:48.868Z,2.10
2018-09-08T14:50:17.253Z,1.50
2018-09-08T14:52:46.654Z,1.77
2018-09-08T14:55:15.125Z,2.87
2018-09-08T14:57:44.249Z,4.07
2018-09-08T15:00:12.707Z,2.33
2018-09-08T15:02:41.825Z,1.97
2018-09-08T15:05:11.263Z,2.00
2018-09-08T15:07:39.720Z,1.70
2018-09-08T15:10:09.550Z,2.73
2018-09-08T15:12:37.981Z,2.30
2018-09-08T15:15:06.831Z,1.70
2018-09-08T15:17:35.335Z,2.40
2018-09-08T15:20:03.785Z,1.70
2018-09-08T15:22:32.209Z,1.97
2018-09-08T15:25:00.803Z,2.67
2018-09-08T15:27:29.250Z,2.33
2018-09-08T15:29:57.681Z,1.77
2018-09-08T15:32:26.073Z,2.90
2018-09-08T15:34:54.621Z,1.97
2018-09-08T15:37:23.028Z,2.10
2018-09-08T15:39:51.505Z,1.90
2018-09-08T15:42:19.926Z,2.47
2018-09-08T15:44:48.409Z,4.83
2018-09-08T15:47:16.824Z,2.17
2018-09-08T15:49:45.277Z,2.13
2018-09-08T15:52:14.125Z,1.93
2018-09-08T15:54:42.574Z,2.00
2018-09-08T15:57:11.011Z,2.07
2018-09-08T15:59:39.453Z,1.73
2018-09-08T16:02:07.946Z,5.07
2018-09-08T16:04:36.373Z,2.73
2018-09-08T16:07:05.142Z,2.53
2018-09-08T16:09:33.543Z,2.80
2018-09-08T16:12:02.078Z,1.90
2018-09-08T16:14:30.628Z,1.93
2018-09-08T16:16:59.039Z,3.17
2018-09-08T16:19:27.478Z,3.47
2018-09-08T16:21:55.974Z,1.83
2018-09-08T16:24:24.433Z,2.37
2018-09-08T16:26:52.881Z,2.43
2018-09-08T16:29:21.309Z,2.47
2018-09-08T16:31:49.769Z,2.20
2018-09-08T16:34:18.287Z,1.70
2018-09-08T16:36:46.700Z,2.40
2018-09-08T16:39:15.148Z,2.60
2018-09-08T16:41:43.586Z,2.17
2018-09-08T16:44:12.072Z,2.03
2018-09-08T16:46:40.504Z,1.93
2018-09-08T16:49:16.924Z,3.03
2018-09-08T16:51:45.353Z,2.70
2018-09-08T16:54:13.810Z,2.20
2018-09-08T16:56:42.254Z,1.50
2018-09-08T16:59:10.727Z,2.73
2018-09-08T17:01:39.203Z,3.43
2018-09-08T17:04:07.713Z,2.43
2018-09-08T17:06:36.163Z,2.37
2018-09-08T17:09:05.358Z,3.80
2018-09-08T17:11:33.817Z,2.23
2018-09-08T17:14:02.255Z,2.93
2018-09-08T17:16:30.775Z,1.80
2018-09-08T17:18:59.263Z,3.27
2018-09-08T17:21:27.733Z,2.83
2018-09-08T17:23:56.256Z,1.37
2018-09-08T17:26:31.218Z,1.83
2018-09-08T17:28:59.667Z,2.13
2018-09-08T17:31:28.128Z,4.87
2018-09-08T17:33:56.646Z,2.10
2018-09-08T17:36:25.166Z,2.77
2018-09-08T17:38:53.708Z,4.63
2018-09-08T17:41:22.198Z,3.90
2018-09-08T17:43:51.050Z,2.90
2018-09-08T17:46:19.505Z,2.63
2018-09-08T17:48:47.975Z,3.53
2018-09-08T17:51:16.454Z,2.67
2018-09-08T17:53:44.854Z,2.97
2018-09-08T17:56:13.331Z,2.60
2018-09-08T17:58:41.779Z,3.40
2018-09-08T18:01:10.254Z,3.30
2018-09-08T18:03:38.661Z,3.03
2018-09-08T18:06:07.247Z,4.57
2018-09-08T18:08:35.666Z,3.27
2018-09-08T18:11:04.249Z,4.83
2018-09-08T18:13:32.714Z,3.53
2018-09-08T18:16:01.181Z,4.30
2018-09-08T18:18:29.654Z,3.93
2018-09-08T18:20:58.060Z,5.47
2018-09-08T18:23:26.762Z,8.03
2018-09-08T18:37:49.307Z,6.17
2018-09-08T18:40:18.042Z,3.47
2018-09-08T18:42:46.794Z,2.77
2018-09-08T18:45:15.534Z,3.87
2018-09-08T18:47:44.169Z,3.93
2018-09-08T18:50:13.162Z,3.20
2018-09-08T18:52:41.793Z,3.10
2018-09-08T18:55:10.458Z,4.50
2018-09-08T18:57:39.152Z,4.60
2018-09-08T19:00:07.774Z,3.00
2018-09-08T19:02:36.522Z,3.50
2018-09-08T19:08:05.815Z,3.97
2018-09-08T19:10:35.688Z,2.70
2018-09-08T19:13:05.222Z,2.67
2018-09-08T19:15:33.903Z,3.70
2018-09-08T19:18:02.501Z,3.00
2018-09-08T19:20:37.902Z,2.67
2018-09-08T19:23:12.581Z,2.60
2018-09-08T19:25:41.313Z,3.13
2018-09-08T19:28:09.973Z,3.20
2018-09-08T19:30:38.664Z,3.87
2018-09-08T19:33:07.409Z,3.03
2018-09-08T19:35:36.831Z,4.17
2018-09-08T19:38:05.363Z,3.60
2018-09-08T19:40:39.153Z,3.63
2018-09-08T19:43:07.674Z,3.73
2018-09-08T19:45:37.364Z,4.50
2018-09-08T19:48:07.653Z,3.93
2018-09-08T19:50:36.397Z,4.40
2018-09-08T19:53:10.102Z,2.40
2018-09-08T19:55:38.529Z,3.33
2018-09-08T19:58:12.146Z,3.30
2018-09-08T20:00:40.632Z,5.00
2018-09-08T20:03:27.279Z,4.50
2018-09-08T20:05:55.663Z,20.13
2018-09-08T20:08:24.081Z,9.50
2018-09-08T20:10:52.851Z,29.40
2018-09-08T20:13:22.252Z,13.37
2018-09-08T20:15:53.683Z,10.17
2018-09-08T20:18:22.355Z,6.30
2018-09-08T20:20:50.759Z,3.60
2018-09-08T20:23:19.186Z,4.00
2018-09-08T20:25:57.461Z,6.17
2018-09-08T20:28:25.905Z,2.67
2018-09-08T20:30:54.306Z,8.57
2018-09-08T20:33:23.714Z,4.47
2018-09-08T20:35:52.658Z,3.80
2018-09-08T20:38:21.338Z,4.07
2018-09-08T20:40:50.907Z,3.67
2018-09-08T20:43:19.561Z,4.97
2018-09-08T20:45:48.449Z,2.60
2018-09-08T20:48:22.520Z,3.57
2018-09-08T20:50:51.226Z,3.50
2018-09-08T20:53:20.020Z,6.93
2018-09-08T20:55:54.745Z,21.40
2018-09-08T20:58:23.467Z,15.87
2018-09-08T21:00:51.914Z,15.73
2018-09-08T21:03:20.351Z,14.37
2018-09-08T21:05:48.774Z,15.37
2018-09-08T21:08:17.215Z,9.40
2018-09-08T21:10:45.614Z,14.70
2018-09-08T21:13:14.167Z,13.93
2018-09-08T21:15:42.539Z,9.90
2018-09-08T21:18:10.937Z,8.60
2018-09-08T21:20:39.359Z,18.87
2018-09-08T21:23:07.766Z,5.63
2018-09-08T21:25:36.198Z,7.67
2018-09-08T21:28:04.623Z,4.23
2018-09-08T21:30:33.029Z,3.03
2018-09-08T21:33:01.459Z,5.70
2018-09-08T21:35:29.861Z,6.43
2018-09-08T21:37:58.262Z,7.37
2018-09-08T21:40:26.704Z,4.60
2018-09-08T21:42:55.086Z,5.20
2018-09-08T21:45:23.497Z,5.80
2018-09-08T21:47:51.901Z,6.00
2018-09-08T21:50:20.314Z,5.83
2018-09-08T21:52:48.693Z,7.07
2018-09-08T21:55:17.193Z,6.47
2018-09-08T21:57:45.576Z,4.20
2018-09-08T22:00:14.078Z,4.70
2018-09-08T22:02:42.521Z,5.87
2018-09-08T22:05:10.951Z,4.93
2018-09-08T22:07:39.409Z,8.23
2018-09-08T22:10:07.890Z,6.20
2018-09-08T22:12:36.342Z,4.87
2018-09-08T22:15:04.907Z,4.83
2018-09-08T22:17:33.306Z,6.57
2018-09-08T22:20:01.738Z,6.03
2018-09-08T22:22:30.194Z,7.43
2018-09-08T22:24:58.625Z,8.93
2018-09-08T22:27:27.021Z,7.00
2018-09-08T22:29:55.450Z,7.23
2018-09-08T22:32:23.851Z,5.23
2018-09-08T22:34:52.313Z,7.77
2018-09-08T22:37:21.029Z,6.93
2018-09-08T22:39:49.712Z,11.00
2018-09-08T22:42:18.162Z,12.27
2018-09-08T22:44:46.577Z,6.93
2018-09-08T22:47:15.024Z,8.73
2018-09-08T22:49:43.533Z,7.83
2018-09-08T22:52:11.979Z,7.70
2018-09-08T22:54:40.450Z,7.73
2018-09-08T22:57:08.912Z,12.47
2018-09-08T22:59:37.400Z,8.13
2018-09-08T23:02:05.881Z,32.00
2018-09-08T23:04:34.368Z,8.10
2018-09-08T23:07:02.761Z,9.93
2018-09-08T23:09:31.181Z,9.57
2018-09-08T23:11:59.595Z,9.73
2018-09-08T23:14:28.028Z,10.27
2018-09-08T23:16:56.453Z,11.40
2018-09-08T23:19:24.918Z,6.77
2018-09-08T23:21:53.362Z,6.93
2018-09-08T23:24:21.837Z,6.20
2018-09-08T23:26:50.244Z,7.90
2018-09-08T23:29:18.718Z,8.77
2018-09-08T23:31:47.117Z,8.23
2018-09-08T23:34:15.574Z,7.30
2018-09-08T23:36:44.117Z,8.23
2018-09-08T23:39:12.593Z,6.80
2018-09-08T23:41:40.970Z,8.43
2018-09-08T23:44:09.479Z,8.97
2018-09-08T23:46:37.909Z,7.13
2018-09-08T23:49:06.321Z,8.67
2018-09-08T23:51:34.747Z,9.97
2018-09-08T23:54:03.173Z,12.23
2018-09-08T23:56:31.621Z,6.90
2018-09-08T23:59:00.085Z,11.07
